Maturin, Venezuela
Current Conditions -  °F | °C
As of 6:00 PM on Sunday 21 Dec 2014 (Local Time) from SVCU Reporting Station
Few Clouds Few Clouds  
Wind Chill: 28°   Ceiling: Unl
Heat Index: 29°   Visibility: 6mi
Dew Point: 18°   Wind: 18mph
Humidity: 54%   Direction: 50°NE
Pressure: 29.83"   Gusts: NA
Location:  9.75°N, 63.17°W
Report Text: SVCU 212200Z 05016KT 9999 FEW013 28/18 Q1010
Loading
Personal Weather Stations






























Interactive Weather Map New forecast layout! Learn more

10-Day Weather Forecast

Advertisements
Track Severe Weather on mobile